^^
Grace C. Lehan Memorial Weather Station Historical Data
Daily Summary for March 12, 2021 Units:  Both    English   Metric
Daily Weekly Monthly Yearly
  High: Low: Average:
Temperature: 73.6 °F /  23.1 °C 54 °F /  12.2 °C 61 °F /  16.1 °C
Dew Point: 62.8 °F /  17.1 °C 52.6 °F /  11.4 °C 57.1 °F /  13.9 °C
Humidity: 97% 67% 88%
Wind Speed: 0.5mph /  0.8km/h - 0mph /  0km/h
Wind Gust: 6mph /  9.7km/h - -
Wind- - SSW
Pressure: 30.15 in /  1020.9 hPa 30.02 in /  1016.5 hPa -
Precipitation: 0.00 in /  0 mm    
 
 
Tabular Data for March 12, 2021
Time Temperature Dew Point Pressure Wind Wind Speed Wind Gust Humidity Rainfall Rate (Hourly) solar
00:09 58.1 °F /  14.5 °C 56.1 °F /  13.4 °C 30.08in /  1018.5hPa Calm     93% 0.00in /  0mm 0 W/m2
00:14 58.1 °F /  14.5 °C 56 °F /  13.3 °C 30.08in /  1018.5hPa Calm     93% 0.00in /  0mm 0 W/m2
00:19 57.9 °F /  14.4 °C 55.9 °F /  13.3 °C 30.08in /  1018.5hPa Calm     93% 0.00in /  0mm 0 W/m2
00:24 57.8 °F /  14.3 °C 55.8 °F /  13.2 °C 30.08in /  1018.5hPa Calm     93% 0.00in /  0mm 0 W/m2
00:29 57.6 °F /  14.2 °C 55.6 °F /  13.1 °C 30.08in /  1018.5hPa Calm     93% 0.00in /  0mm 0 W/m2
00:34 57.5 °F /  14.2 °C 55.5 °F /  13.1 °C 30.08in /  1018.5hPa Calm     93% 0.00in /  0mm 0 W/m2
00:39 57.3 °F /  14.1 °C 55.3 °F /  12.9 °C 30.08in /  1018.5hPa Calm     93% 0.00in /  0mm 0 W/m2
00:44 57.2 °F /  14 °C 55.2 °F /  12.9 °C 30.08in /  1018.5hPa Calm     93% 0.00in /  0mm 0 W/m2
00:49 57.2 °F /  14 °C 55.3 °F /  12.9 °C 30.08in /  1018.5hPa Calm     93.3% 0.00in /  0mm 0 W/m2
00:54 57.2 °F /  14 °C 55.5 °F /  13.1 °C 30.08in /  1018.5hPa Calm     94% 0.00in /  0mm 0 W/m2
00:59 57.2 °F /  14 °C 55.5 °F /  13.1 °C 30.08in /  1018.5hPa Calm     94% 0.00in /  0mm 0 W/m2
01:04 57.1 °F /  13.9 °C 55.4 °F /  13 °C 30.08in /  1018.5hPa Calm     94% 0.00in /  0mm 0 W/m2
01:09 57 °F /  13.9 °C 55.3 °F /  12.9 °C 30.09in /  1018.8hPa Calm     94% 0.00in /  0mm 0 W/m2
01:14 57 °F /  13.9 °C 55.3 °F /  12.9 °C 30.09in /  1018.8hPa Calm     94% 0.00in /  0mm 0 W/m2
01:19 56.9 °F /  13.8 °C 55.2 °F /  12.9 °C 30.09in /  1018.8hPa Calm     94% 0.00in /  0mm 0 W/m2
01:24 56.7 °F /  13.7 °C 55 °F /  12.8 °C 30.09in /  1018.8hPa Calm     94% 0.00in /  0mm 0 W/m2
01:29 56.4 °F /  13.6 °C 54.5 °F /  12.5 °C 30.09in /  1018.8hPa Calm     93.2% 0.00in /  0mm 0 W/m2
01:34 56.2 °F /  13.4 °C 54.3 °F /  12.4 °C 30.09in /  1018.8hPa Calm     93.3% 0.00in /  0mm 0 W/m2
01:39 56.1 °F /  13.4 °C 54.4 °F /  12.4 °C 30.09in /  1018.8hPa Calm     94% 0.00in /  0mm 0 W/m2
01:44 56.1 °F /  13.4 °C 54.4 °F /  12.4 °C 30.08in /  1018.5hPa Calm     94% 0.00in /  0mm 0 W/m2
01:49 56.1 °F /  13.4 °C 54.4 °F /  12.4 °C 30.08in /  1018.5hPa Calm     94% 0.00in /  0mm 0 W/m2
01:54 56 °F /  13.3 °C 54.3 °F /  12.4 °C 30.08in /  1018.5hPa Calm     94% 0.00in /  0mm 0 W/m2
01:59 56 °F /  13.3 °C 54.3 °F /  12.4 °C 30.09in /  1018.8hPa Calm     94% 0.00in /  0mm 0 W/m2
02:03 55.9 °F /  13.3 °C 54.2 °F /  12.3 °C 30.09in /  1018.8hPa Calm     94% 0.00in /  0mm 0 W/m2
02:09 55.9 °F /  13.3 °C 54.2 °F /  12.3 °C 30.09in /  1018.8hPa Calm     94% 0.00in /  0mm 0 W/m2
02:14 55.8 °F /  13.2 °C 54.1 °F /  12.3 °C 30.09in /  1018.8hPa Calm     94% 0.00in /  0mm 0 W/m2
02:19 55.7 °F /  13.2 °C 54 °F /  12.2 °C 30.09in /  1018.8hPa Calm     94% 0.00in /  0mm 0 W/m2
02:24 55.6 °F /  13.1 °C 53.9 °F /  12.2 °C 30.09in /  1018.8hPa Calm     94% 0.00in /  0mm 0 W/m2
02:29 55.5 °F /  13.1 °C 53.8 °F /  12.1 °C 30.09in /  1018.8hPa Calm     94% 0.00in /  0mm 0 W/m2
02:34 55.5 °F /  13.1 °C 53.8 °F /  12.1 °C 30.09in /  1018.8hPa Calm     94% 0.00in /  0mm 0 W/m2
02:39 55.5 °F /  13.1 °C 53.8 °F /  12.1 °C 30.09in /  1018.8hPa Calm     94% 0.00in /  0mm 0 W/m2
02:44 55.5 °F /  13.1 °C 53.8 °F /  12.1 °C 30.08in /  1018.5hPa Calm     94% 0.00in /  0mm 0 W/m2
02:49 55.4 °F /  13 °C 53.7 °F /  12.1 °C 30.09in /  1018.8hPa Calm     94% 0.00in /  0mm 0 W/m2
02:54 55.3 °F /  12.9 °C 53.6 °F /  12 °C 30.09in /  1018.8hPa Calm     94% 0.00in /  0mm 0 W/m2
02:59 55.2 °F /  12.9 °C 53.6 °F /  12 °C 30.09in /  1018.8hPa Calm     94% 0.00in /  0mm 0 W/m2
03:04 55.1 °F /  12.8 °C 53.4 °F /  11.9 °C 30.10in /  1019.2hPa Calm     94% 0.00in /  0mm 0 W/m2
03:09 55 °F /  12.8 °C 53.3 °F /  11.8 °C 30.10in /  1019.2hPa Calm     94% 0.00in /  0mm 0 W/m2
03:14 54.8 °F /  12.7 °C 53.1 °F /  11.7 °C 30.10in /  1019.2hPa Calm     94% 0.00in /  0mm 0 W/m2
03:19 54.6 °F /  12.6 °C 52.9 °F /  11.6 °C 30.10in /  1019.2hPa Calm     94% 0.00in /  0mm 0 W/m2
03:24 54.5 °F /  12.5 °C 52.8 °F /  11.6 °C 30.10in /  1019.2hPa Calm     94% 0.00in /  0mm 0 W/m2
03:29 54.4 °F /  12.4 °C 52.8 °F /  11.6 °C 30.10in /  1019.2hPa Calm     94.4% 0.00in /  0mm 0 W/m2
03:34 54.5 °F /  12.5 °C 53.1 °F /  11.7 °C 30.10in /  1019.2hPa Calm     95% 0.00in /  0mm 0 W/m2
03:39 54.5 °F /  12.5 °C 53.1 °F /  11.7 °C 30.10in /  1019.2hPa Calm     95% 0.00in /  0mm 0 W/m2
03:44 54.5 °F /  12.5 °C 53.1 °F /  11.7 °C 30.10in /  1019.2hPa Calm     95% 0.00in /  0mm 0 W/m2
03:49 54.4 °F /  12.4 °C 53 °F /  11.7 °C 30.10in /  1019.2hPa Calm     95% 0.00in /  0mm 0 W/m2
03:54 54.4 °F /  12.4 °C 53 °F /  11.7 °C 30.10in /  1019.2hPa Calm     95% 0.00in /  0mm 0 W/m2
03:59 54.3 °F /  12.4 °C 52.9 °F /  11.6 °C 30.10in /  1019.2hPa Calm     95% 0.00in /  0mm 0 W/m2
04:09 54.2 °F /  12.3 °C 52.8 °F /  11.6 °C 30.09in /  1018.8hPa Calm     95% 0.00in /  0mm 0 W/m2
04:14 54.2 °F /  12.3 °C 52.8 °F /  11.6 °C 30.09in /  1018.8hPa Calm     95% 0.00in /  0mm 0 W/m2
04:19 54.2 °F /  12.3 °C 52.8 °F /  11.6 °C 30.09in /  1018.8hPa Calm     95% 0.00in /  0mm 0 W/m2
04:24 54.1 °F /  12.3 °C 52.7 °F /  11.5 °C 30.09in /  1018.8hPa Calm     95% 0.00in /  0mm 0 W/m2
04:29 54 °F /  12.2 °C 52.6 °F /  11.4 °C 30.09in /  1018.8hPa Calm     95% 0.00in /  0mm 0 W/m2
04:34 54 °F /  12.2 °C 52.6 °F /  11.4 °C 30.09in /  1018.8hPa Calm     95% 0.00in /  0mm 0 W/m2
04:39 54.1 °F /  12.3 °C 52.7 °F /  11.5 °C 30.09in /  1018.8hPa Calm     95% 0.00in /  0mm 0 W/m2
04:44 54.2 °F /  12.3 °C 52.8 °F /  11.6 °C 30.09in /  1018.8hPa Calm     95% 0.00in /  0mm 0 W/m2
04:49 54.4 °F /  12.4 °C 53 °F /  11.7 °C 30.10in /  1019.2hPa Calm     95% 0.00in /  0mm 0 W/m2
04:54 54.6 °F /  12.6 °C 53.4 °F /  11.9 °C 30.10in /  1019.2hPa Calm     95.6% 0.00in /  0mm 0 W/m2
04:59 54.8 °F /  12.7 °C 53.7 °F /  12.1 °C 30.10in /  1019.2hPa Calm     96% 0.00in /  0mm 0 W/m2
05:04 55.1 °F /  12.8 °C 54 °F /  12.2 °C 30.10in /  1019.2hPa Calm     96% 0.00in /  0mm 0 W/m2
05:09 55.4 °F /  13 °C 54.3 °F /  12.4 °C 30.10in /  1019.2hPa Calm     96% 0.00in /  0mm 0 W/m2
05:14 55.5 °F /  13.1 °C 54.4 °F /  12.4 °C 30.10in /  1019.2hPa Calm     96% 0.00in /  0mm 0 W/m2
05:19 55.7 °F /  13.2 °C 54.6 °F /  12.6 °C 30.10in /  1019.2hPa ENE 0.1mph /  0.2km/h 2mph /  3.2km/h 96% 0.00in /  0mm 0 W/m2
05:24 55.7 °F /  13.2 °C 54.6 °F /  12.6 °C 30.10in /  1019.2hPa Calm   2mph /  3.2km/h 96% 0.00in /  0mm 0 W/m2
05:29 55.7 °F /  13.2 °C 54.6 °F /  12.6 °C 30.10in /  1019.2hPa ENE 0.2mph /  0.3km/h 3mph /  4.8km/h 96% 0.00in /  0mm 0 W/m2
05:34 55.7 °F /  13.2 °C 54.5 °F /  12.5 °C 30.10in /  1019.2hPa Calm   3mph /  4.8km/h 96% 0.00in /  0mm 0 W/m2
05:39 55.6 °F /  13.1 °C 54.5 °F /  12.5 °C 30.10in /  1019.2hPa Calm   2mph /  3.2km/h 96% 0.00in /  0mm 0 W/m2
05:44 55.6 °F /  13.1 °C 54.5 °F /  12.5 °C 30.11in /  1019.5hPa Calm   2mph /  3.2km/h 96% 0.00in /  0mm 0 W/m2
05:49 55.6 °F /  13.1 °C 54.5 °F /  12.5 °C 30.12in /  1019.9hPa Calm   2mph /  3.2km/h 96% 0.00in /  0mm 0 W/m2
05:54 55.7 °F /  13.2 °C 54.6 °F /  12.6 °C 30.12in /  1019.9hPa Calm   2mph /  3.2km/h 96% 0.00in /  0mm 0 W/m2
05:59 55.8 °F /  13.2 °C 54.7 °F /  12.6 °C 30.12in /  1019.9hPa Calm   2mph /  3.2km/h 96% 0.00in /  0mm 0 W/m2
06:04 55.8 °F /  13.2 °C 54.7 °F /  12.6 °C 30.12in /  1019.9hPa Calm   2mph /  3.2km/h 96% 0.00in /  0mm 0 W/m2
06:09 55.8 °F /  13.2 °C 54.7 °F /  12.6 °C 30.12in /  1019.9hPa Calm   1mph /  1.6km/h 96% 0.00in /  0mm 0 W/m2
06:14 55.9 °F /  13.3 °C 54.8 °F /  12.7 °C 30.12in /  1019.9hPa Calm   1mph /  1.6km/h 96% 0.00in /  0mm 0 W/m2
06:19 55.9 °F /  13.3 °C 54.8 °F /  12.7 °C 30.12in /  1019.9hPa Calm   1mph /  1.6km/h 96% 0.00in /  0mm 0 W/m2
06:24 55.9 °F /  13.3 °C 54.8 °F /  12.7 °C 30.12in /  1019.9hPa Calm   1mph /  1.6km/h 96% 0.00in /  0mm 0 W/m2
06:29 55.9 °F /  13.3 °C 54.8 °F /  12.7 °C 30.12in /  1019.9hPa Calm   1mph /  1.6km/h 96% 0.00in /  0mm 0 W/m2
06:34 56 °F /  13.3 °C 54.8 °F /  12.7 °C 30.12in /  1019.9hPa Calm   1mph /  1.6km/h 96% 0.00in /  0mm 0 W/m2
06:39 55.9 °F /  13.3 °C 54.8 °F /  12.7 °C 30.12in /  1019.9hPa Calm     96% 0.00in /  0mm 0 W/m2
06:44 55.9 °F /  13.3 °C 54.8 °F /  12.7 °C 30.13in /  1020.2hPa Calm     96% 0.00in /  0mm 0 W/m2
06:49 56 °F /  13.3 °C 54.9 °F /  12.7 °C 30.13in /  1020.2hPa Calm     96% 0.00in /  0mm 0 W/m2
06:54 56 °F /  13.3 °C 54.9 °F /  12.7 °C 30.13in /  1020.2hPa Calm     96% 0.00in /  0mm 0 W/m2
06:59 56 °F /  13.3 °C 54.9 °F /  12.7 °C 30.13in /  1020.2hPa Calm     96% 0.00in /  0mm 0 W/m2
07:04 56.1 °F /  13.4 °C 55 °F /  12.8 °C 30.13in /  1020.2hPa Calm     96% 0.00in /  0mm 0 W/m2
07:09 56.2 °F /  13.4 °C 55.1 °F /  12.8 °C 30.13in /  1020.2hPa Calm     96% 0.00in /  0mm 0 W/m2
07:14 56.2 °F /  13.4 °C 55.1 °F /  12.8 °C 30.12in /  1019.9hPa Calm     96% 0.00in /  0mm 5 W/m2
07:19 56.3 °F /  13.5 °C 55.1 °F /  12.8 °C 30.12in /  1019.9hPa Calm     96% 0.00in /  0mm 7 W/m2
07:24 56.3 °F /  13.5 °C 55.2 °F /  12.9 °C 30.13in /  1020.2hPa Calm     96% 0.00in /  0mm 9 W/m2
07:29 56.3 °F /  13.5 °C 55.2 °F /  12.9 °C 30.13in /  1020.2hPa Calm     96% 0.00in /  0mm 11 W/m2
07:34 56.3 °F /  13.5 °C 55.2 °F /  12.9 °C 30.13in /  1020.2hPa Calm     96% 0.00in /  0mm 11 W/m2
07:39 56.3 °F /  13.5 °C 55.2 °F /  12.9 °C 30.13in /  1020.2hPa Calm     96% 0.00in /  0mm 12 W/m2
07:44 56.3 °F /  13.5 °C 55.2 °F /  12.9 °C 30.13in /  1020.2hPa Calm     96% 0.00in /  0mm 30 W/m2
07:49 56.2 °F /  13.4 °C 55.1 °F /  12.8 °C 30.13in /  1020.2hPa Calm   1mph /  1.6km/h 96% 0.00in /  0mm 33 W/m2
07:54 56.2 °F /  13.4 °C 55.1 °F /  12.8 °C 30.13in /  1020.2hPa Calm   1mph /  1.6km/h 96% 0.00in /  0mm 33 W/m2
07:59 56.2 °F /  13.4 °C 55.1 °F /  12.8 °C 30.13in /  1020.2hPa Calm   1mph /  1.6km/h 96% 0.00in /  0mm 33 W/m2
08:00 56.2 °F /  13.4 °C 55.1 °F /  12.8 °C 30.13in /  1020.2hPa Calm   1mph /  1.6km/h 96% 0.00in /  0mm 28 W/m2
08:09 56.3 °F /  13.5 °C 55.2 °F /  12.9 °C 30.14in /  1020.5hPa Calm     96% 0.00in /  0mm 53 W/m2
08:14 56.4 °F /  13.6 °C 55.3 °F /  12.9 °C 30.14in /  1020.5hPa Calm     96% 0.00in /  0mm 54 W/m2
08:19 56.4 °F /  13.6 °C 55.3 °F /  12.9 °C 30.14in /  1020.5hPa Calm     96% 0.00in /  0mm 56 W/m2
08:24 56.5 °F /  13.6 °C 55.3 °F /  12.9 °C 30.14in /  1020.5hPa Calm     96% 0.00in /  0mm 53 W/m2
08:29 56.6 °F /  13.7 °C 55.5 °F /  13.1 °C 30.14in /  1020.5hPa Calm     96% 0.00in /  0mm 62 W/m2
08:34 56.7 °F /  13.7 °C 55.7 °F /  13.2 °C 30.14in /  1020.5hPa Calm     96.5% 0.00in /  0mm 77 W/m2
08:39 56.8 °F /  13.8 °C 56 °F /  13.3 °C 30.14in /  1020.5hPa Calm     97% 0.00in /  0mm 86 W/m2
08:44 57 °F /  13.9 °C 56.1 °F /  13.4 °C 30.14in /  1020.5hPa Calm   1mph /  1.6km/h 97% 0.00in /  0mm 72 W/m2
08:49 57 °F /  13.9 °C 56.2 °F /  13.4 °C 30.15in /  1020.9hPa Calm   1mph /  1.6km/h 97% 0.00in /  0mm 77 W/m2
08:54 56.9 °F /  13.8 °C 56 °F /  13.3 °C 30.15in /  1020.9hPa Calm   1mph /  1.6km/h 96.7% 0.00in /  0mm 93 W/m2
08:59 56.8 °F /  13.8 °C 55.7 °F /  13.2 °C 30.15in /  1020.9hPa ENE 0.2mph /  0.3km/h 3mph /  4.8km/h 96% 0.00in /  0mm 77 W/m2
09:04 56.8 °F /  13.8 °C 55.6 °F /  13.1 °C 30.15in /  1020.9hPa Calm   3mph /  4.8km/h 96% 0.00in /  0mm 102 W/m2
09:09 56.8 °F /  13.8 °C 55.7 °F /  13.2 °C 30.15in /  1020.9hPa Calm   2mph /  3.2km/h 96% 0.00in /  0mm 100 W/m2
09:14 56.9 °F /  13.8 °C 55.9 °F /  13.3 °C 30.15in /  1020.9hPa Calm   2mph /  3.2km/h 96.5% 0.00in /  0mm 95 W/m2
09:19 57.1 °F /  13.9 °C 56 °F /  13.3 °C 30.15in /  1020.9hPa Calm   2mph /  3.2km/h 96% 0.00in /  0mm 107 W/m2
09:24 57.3 °F /  14.1 °C 56.1 °F /  13.4 °C 30.15in /  1020.9hPa Calm   2mph /  3.2km/h 96% 0.00in /  0mm 113 W/m2
09:28 57.5 °F /  14.2 °C 56.7 °F /  13.7 °C 30.14in /  1020.5hPa Calm   2mph /  3.2km/h 96.9% 0.00in /  0mm 102 W/m2
09:30 57.7 °F /  14.3 °C 56.9 °F /  13.8 °C 30.14in /  1020.5hPa Calm   2mph /  3.2km/h 97% 0.00in /  0mm 94 W/m2
10:00 58.4 °F /  14.7 °C 57.3 °F /  14.1 °C 30.13in /  1020.2hPa Calm   4mph /  6.4km/h 96% 0.00in /  0mm 141 W/m2
10:30 59.1 °F /  15.1 °C 58 °F /  14.4 °C 30.13in /  1020.2hPa Calm   3mph /  4.8km/h 96% 0.00in /  0mm 135 W/m2
11:00 60.6 °F /  15.9 °C 58.9 °F /  14.9 °C 30.12in /  1019.9hPa Calm   5mph /  8km/h 94% 0.00in /  0mm 202 W/m2
11:30 65 °F /  18.3 °C 60.4 °F /  15.8 °C 30.11in /  1019.5hPa Calm   6mph /  9.7km/h 85% 0.00in /  0mm 277 W/m2
12:04 68.8 °F /  20.4 °C 60.7 °F /  15.9 °C 30.10in /  1019.2hPa Calm     75.3% 0.00in /  0mm 100 W/m2
12:09 68.7 °F /  20.4 °C 60.5 °F /  15.8 °C 30.11in /  1019.5hPa Calm   2mph /  3.2km/h 74.9% 0.00in /  0mm 503 W/m2
12:14 68.8 °F /  20.4 °C 60.9 °F /  16.1 °C 30.11in /  1019.5hPa Calm   2mph /  3.2km/h 75.9% 0.00in /  0mm 589 W/m2
12:19 69.2 °F /  20.7 °C 61 °F /  16.1 °C 30.10in /  1019.2hPa Calm   2mph /  3.2km/h 75% 0.00in /  0mm 612 W/m2
12:24 69.6 °F /  20.9 °C 60.9 °F /  16.1 °C 30.10in /  1019.2hPa Calm   2mph /  3.2km/h 73.7% 0.00in /  0mm 619 W/m2
12:29 70 °F /  21.1 °C 60.8 °F /  16 °C 30.10in /  1019.2hPa Calm   2mph /  3.2km/h 72.7% 0.00in /  0mm 492 W/m2
12:34 70.1 °F /  21.2 °C 60.5 °F /  15.8 °C 30.10in /  1019.2hPa Calm   2mph /  3.2km/h 71.6% 0.00in /  0mm 302 W/m2
13:00 70.7 °F /  21.5 °C 61.6 °F /  16.4 °C 30.08in /  1018.5hPa Calm   5mph /  8km/h 73% 0.00in /  0mm 131 W/m2
13:30 71.2 °F /  21.8 °C 60.9 °F /  16.1 °C 30.08in /  1018.5hPa Calm   3mph /  4.8km/h 70% 0.00in /  0mm 133 W/m2
14:30 72.3 °F /  22.4 °C 62 °F /  16.7 °C 30.05in /  1017.5hPa Calm   5mph /  8km/h 70% 0.00in /  0mm 174 W/m2
15:00 73.1 °F /  22.8 °C 61.5 °F /  16.4 °C 30.04in /  1017.2hPa Calm   4mph /  6.4km/h 67% 0.00in /  0mm 85 W/m2
15:30 73.6 °F /  23.1 °C 62 °F /  16.7 °C 30.03in /  1016.8hPa Calm   4mph /  6.4km/h 67% 0.00in /  0mm 95 W/m2
16:04 73.4 °F /  23 °C 61.8 °F /  16.6 °C 30.03in /  1016.8hPa WSW 0.1mph /  0.2km/h 1mph /  1.6km/h 67% 0.00in /  0mm 28 W/m2
16:09 73.3 °F /  22.9 °C 61.9 °F /  16.6 °C 30.03in /  1016.8hPa WSW 0.5mph /  0.8km/h 3mph /  4.8km/h 67.3% 0.00in /  0mm 28 W/m2
16:14 73.3 °F /  22.9 °C 62.5 °F /  16.9 °C 30.03in /  1016.8hPa WSW 0.3mph /  0.5km/h 4mph /  6.4km/h 68.8% 0.00in /  0mm 28 W/m2
16:19 73.3 °F /  22.9 °C 62.3 °F /  16.8 °C 30.03in /  1016.8hPa WSW 0.4mph /  0.6km/h 4mph /  6.4km/h 68.5% 0.00in /  0mm 28 W/m2
16:24 73.2 °F /  22.9 °C 62.3 °F /  16.8 °C 30.03in /  1016.8hPa Calm   4mph /  6.4km/h 68.7% 0.00in /  0mm 28 W/m2
16:29 73.1 °F /  22.8 °C 62.4 °F /  16.9 °C 30.03in /  1016.8hPa WSW 0.1mph /  0.2km/h 4mph /  6.4km/h 69% 0.00in /  0mm 28 W/m2
16:34 73 °F /  22.8 °C 62.3 °F /  16.8 °C 30.03in /  1016.8hPa WSW 0.4mph /  0.6km/h 4mph /  6.4km/h 69% 0.00in /  0mm 26 W/m2
16:39 72.9 °F /  22.7 °C 62.3 °F /  16.8 °C 30.03in /  1016.8hPa WSW 0.1mph /  0.2km/h 3mph /  4.8km/h 69.2% 0.00in /  0mm 26 W/m2
16:44 72.8 °F /  22.7 °C 62.5 °F /  16.9 °C 30.03in /  1016.8hPa WSW 0.1mph /  0.2km/h 3mph /  4.8km/h 70% 0.00in /  0mm 26 W/m2
16:49 72.7 °F /  22.6 °C 62.4 °F /  16.9 °C 30.03in /  1016.8hPa WSW 0.1mph /  0.2km/h 3mph /  4.8km/h 70% 0.00in /  0mm 26 W/m2
16:54 72.6 °F /  22.6 °C 62.3 °F /  16.8 °C 30.03in /  1016.8hPa Calm   3mph /  4.8km/h 70% 0.00in /  0mm 30 W/m2
16:59 72.5 °F /  22.5 °C 62.4 °F /  16.9 °C 30.03in /  1016.8hPa Calm   3mph /  4.8km/h 70.6% 0.00in /  0mm 33 W/m2
17:04 72.4 °F /  22.4 °C 62.5 °F /  16.9 °C 30.03in /  1016.8hPa Calm   3mph /  4.8km/h 71% 0.00in /  0mm 35 W/m2
17:09 72.4 °F /  22.4 °C 62.7 °F /  17.1 °C 30.03in /  1016.8hPa Calm     71.5% 0.00in /  0mm 33 W/m2
17:14 72.3 °F /  22.4 °C 62.8 °F /  17.1 °C 30.02in /  1016.5hPa Calm     72% 0.00in /  0mm 33 W/m2
17:19 72.2 °F /  22.3 °C 62.5 °F /  16.9 °C 30.02in /  1016.5hPa Calm     71.6% 0.00in /  0mm 32 W/m2
17:24 72.1 °F /  22.3 °C 62.6 °F /  17 °C 30.02in /  1016.5hPa WSW 0.1mph /  0.2km/h 3mph /  4.8km/h 72% 0.00in /  0mm 28 W/m2
17:29 72 °F /  22.2 °C 62.6 °F /  17 °C 30.02in /  1016.5hPa Calm   3mph /  4.8km/h 72.5% 0.00in /  0mm 25 W/m2
17:34 71.9 °F /  22.2 °C 62.7 °F /  17.1 °C 30.02in /  1016.5hPa WSW 0.1mph /  0.2km/h 3mph /  4.8km/h 73% 0.00in /  0mm 23 W/m2
17:39 71.7 °F /  22.1 °C 62.6 °F /  17 °C 30.02in /  1016.5hPa Calm   2mph /  3.2km/h 73% 0.00in /  0mm 21 W/m2
17:44 71.6 °F /  22 °C 62.5 °F /  16.9 °C 30.02in /  1016.5hPa Calm   2mph /  3.2km/h 73% 0.00in /  0mm 18 W/m2
17:49 71.4 °F /  21.9 °C 62.6 °F /  17 °C 30.02in /  1016.5hPa Calm   2mph /  3.2km/h 73.7% 0.00in /  0mm 16 W/m2
17:54 71.3 °F /  21.8 °C 62.6 °F /  17 °C 30.02in /  1016.5hPa Calm   2mph /  3.2km/h 74% 0.00in /  0mm 16 W/m2
17:59 71.1 °F /  21.7 °C 62.4 °F /  16.9 °C 30.02in /  1016.5hPa Calm   2mph /  3.2km/h 74% 0.00in /  0mm 14 W/m2
18:04 70.9 °F /  21.6 °C 62.3 °F /  16.8 °C 30.02in /  1016.5hPa Calm   2mph /  3.2km/h 74.4% 0.00in /  0mm 12 W/m2
18:09 70.6 °F /  21.4 °C 62.3 °F /  16.8 °C 30.02in /  1016.5hPa Calm     75% 0.00in /  0mm 9 W/m2
18:14 70.3 °F /  21.3 °C 62.1 °F /  16.7 °C 30.02in /  1016.5hPa Calm     75.2% 0.00in /  0mm 5 W/m2
18:19 70.1 °F /  21.2 °C 62.2 °F /  16.8 °C 30.02in /  1016.5hPa Calm     76% 0.00in /  0mm 0 W/m2
18:24 69.7 °F /  20.9 °C 62.2 °F /  16.8 °C 30.02in /  1016.5hPa Calm     77% 0.00in /  0mm 0 W/m2
18:29 69.4 °F /  20.8 °C 61.9 °F /  16.6 °C 30.02in /  1016.5hPa Calm     77% 0.00in /  0mm 0 W/m2
18:34 69.1 °F /  20.6 °C 61.6 °F /  16.4 °C 30.02in /  1016.5hPa Calm     77% 0.00in /  0mm 0 W/m2
18:39 68.8 °F /  20.4 °C 61.3 °F /  16.3 °C 30.02in /  1016.5hPa Calm     77% 0.00in /  0mm 0 W/m2
18:44 68.6 °F /  20.3 °C 61.1 °F /  16.2 °C 30.02in /  1016.5hPa Calm     77.1% 0.00in /  0mm 0 W/m2
18:49 68.3 °F /  20.2 °C 61.2 °F /  16.2 °C 30.02in /  1016.5hPa Calm     78% 0.00in /  0mm 0 W/m2
18:54 68 °F /  20 °C 60.9 °F /  16.1 °C 30.02in /  1016.5hPa Calm     78% 0.00in /  0mm 0 W/m2
18:59 67.8 °F /  19.9 °C 60.8 °F /  16 °C 30.02in /  1016.5hPa Calm     78.5% 0.00in /  0mm 0 W/m2
19:04 67.5 °F /  19.7 °C 60.8 °F /  16 °C 30.03in /  1016.8hPa Calm     79% 0.00in /  0mm 0 W/m2
19:09 67.2 °F /  19.6 °C 60.5 °F /  15.8 °C 30.03in /  1016.8hPa Calm     79% 0.00in /  0mm 0 W/m2
19:14 66.9 °F /  19.4 °C 60.2 °F /  15.7 °C 30.03in /  1016.8hPa Calm     79% 0.00in /  0mm 0 W/m2
19:19 66.6 °F /  19.2 °C 59.9 °F /  15.5 °C 30.03in /  1016.8hPa Calm     79.1% 0.00in /  0mm 0 W/m2
19:24 66.3 °F /  19.1 °C 60 °F /  15.6 °C 30.03in /  1016.8hPa Calm     80% 0.00in /  0mm 0 W/m2
19:29 66.1 °F /  18.9 °C 59.7 °F /  15.4 °C 30.03in /  1016.8hPa Calm     80% 0.00in /  0mm 0 W/m2
19:34 65.8 °F /  18.8 °C 59.5 °F /  15.3 °C 30.03in /  1016.8hPa Calm     80% 0.00in /  0mm 0 W/m2
19:39 65.6 °F /  18.7 °C 59.2 °F /  15.1 °C 30.03in /  1016.8hPa Calm     80% 0.00in /  0mm 0 W/m2
19:44 65.3 °F /  18.5 °C 59.3 °F /  15.2 °C 30.03in /  1016.8hPa Calm     81% 0.00in /  0mm 0 W/m2
19:49 65.1 °F /  18.4 °C 59.1 °F /  15.1 °C 30.03in /  1016.8hPa Calm     81% 0.00in /  0mm 0 W/m2
19:54 64.8 °F /  18.2 °C 59.2 °F /  15.1 °C 30.03in /  1016.8hPa Calm     81.9% 0.00in /  0mm 0 W/m2
19:59 64.6 °F /  18.1 °C 59 °F /  15 °C 30.03in /  1016.8hPa Calm     82% 0.00in /  0mm 0 W/m2
20:09 64.1 °F /  17.8 °C 58.8 °F /  14.9 °C 30.03in /  1016.8hPa Calm     83% 0.00in /  0mm 0 W/m2
20:14 63.8 °F /  17.7 °C 58.6 °F /  14.8 °C 30.03in /  1016.8hPa Calm     83% 0.00in /  0mm 0 W/m2
20:19 63.6 °F /  17.6 °C 58.3 °F /  14.6 °C 30.03in /  1016.8hPa Calm     83% 0.00in /  0mm 0 W/m2
20:24 63.3 °F /  17.4 °C 58.1 °F /  14.5 °C 30.03in /  1016.8hPa Calm     83% 0.00in /  0mm 0 W/m2
20:29 63.1 °F /  17.3 °C 58.2 °F /  14.6 °C 30.03in /  1016.8hPa Calm     83.9% 0.00in /  0mm 0 W/m2
20:34 62.9 °F /  17.2 °C 58 °F /  14.4 °C 30.03in /  1016.8hPa Calm     84% 0.00in /  0mm 0 W/m2
20:39 62.7 °F /  17.1 °C 57.9 °F /  14.4 °C 30.03in /  1016.8hPa Calm     84.2% 0.00in /  0mm 0 W/m2
20:44 62.5 °F /  16.9 °C 58 °F /  14.4 °C 30.03in /  1016.8hPa Calm     85% 0.00in /  0mm 0 W/m2
20:49 62.3 °F /  16.8 °C 57.8 °F /  14.3 °C 30.03in /  1016.8hPa Calm     85% 0.00in /  0mm 0 W/m2
20:54 62.2 °F /  16.8 °C 57.8 °F /  14.3 °C 30.03in /  1016.8hPa Calm     85.7% 0.00in /  0mm 0 W/m2
20:59 62 °F /  16.7 °C 57.8 °F /  14.3 °C 30.03in /  1016.8hPa Calm     86% 0.00in /  0mm 0 W/m2
21:03 61.9 °F /  16.6 °C 57.6 °F /  14.2 °C 30.04in /  1017.2hPa Calm     86% 0.00in /  0mm 0 W/m2
Hartford County Weather
Compliments of Weather Underground - 2 mb